Time;durP1;ratioP1;P1;durP2;ratioP2;P2;SDS_P1;SDS_P2;PMS_P1;PMS_P2;Temp;Humidity;BMP_temperature;BMP_pressure;BME280_temperature;BME280_humidity;BME280_pressure;Samples;Min_cycle;Max_cycle;Signal;HPM_P1;HPM_P2
2023/06/14 00:00:12;;;;;;;;;;;;;;;;;;5067852;28;19956;-60
2023/06/14 00:02:37;;;;;;;;;;;;;;;;;;5072774;28;20283;-61
2023/06/14 00:05:04;;;;;;;;;;;;;;;;;;5075074;28;19957;-60
2023/06/14 00:07:30;;;;;;;;;;;;;;;;;;5074125;28;19913;-59
2023/06/14 00:09:56;;;;;;;;;;;;;;;;;;5066436;28;19959;-60
2023/06/14 00:12:21;;;;;;;;;;;;;;;;;;5073325;28;19912;-60
2023/06/14 00:14:47;;;;;;;;;;;;;;;;;;5072643;28;19912;-60
2023/06/14 00:17:16;;;;;;;;;;;;;;;;;;5081316;28;19916;-60
2023/06/14 00:19:42;;;;;;;;;;;;;;;;;;5088285;28;20284;-61
2023/06/14 00:22:08;;;;;;;;;;;;;;;;;;5074917;28;19923;-60
2023/06/14 00:24:34;;;;;;;;;;;;;;;;;;5074959;28;19912;-60
2023/06/14 00:26:59;;;;;;;;;;;;;;;;;;5074497;28;19912;-60
2023/06/14 00:29:25;;;;;;;;;;;;;;;;;;5073122;28;20046;-60
2023/06/14 00:31:51;;;;;;;;;;;;;;;;;;5074567;28;20387;-60
2023/06/14 00:34:17;;;;;;;;;;;;;;;;;;5075683;28;20021;-60
2023/06/14 00:36:43;;;;;;;;;;;;;;;;;;5072480;28;19935;-63
2023/06/14 00:39:09;;;;;;;;;;;;;;;;;;5073731;28;19955;-60
2023/06/14 00:41:35;;;;;;;;;;;;;;;;;;5062308;28;19919;-60
2023/06/14 00:44:01;;;;;;;;;;;;;;;;;;5068446;28;19948;-60
2023/06/14 00:46:27;;;;;;;;;;;;;;;;;;5068217;28;21345;-61
2023/06/14 00:48:53;;;;;;;;;;;;;;;;;;5074128;28;20285;-60
2023/06/14 00:51:19;;;;;;;;;;;;;;;;;;5071410;28;19917;-60
2023/06/14 00:53:48;;;;;;;;;;;;;;;;;;5074515;28;19920;-60
2023/06/14 00:56:14;;;;;;;;;;;;;;;;;;5061399;28;19924;-59
2023/06/14 00:58:40;;;;;;;;;;;;;;;;;;5068194;28;19939;-60
2023/06/14 01:01:06;;;;;;;;;;;;;;;;;;5056067;28;19917;-64
2023/06/14 01:03:33;;;;;;;;;;;;;;;;;;5070075;28;19974;-65
2023/06/14 01:06:02;;;;;;;;;;;;;;;;;;5060536;28;19923;-65
2023/06/14 01:08:27;;;;;;;;;;;;;;;;;;5074724;28;19912;-65
2023/06/14 01:10:53;;;;;;;;;;;;;;;;;;5065913;28;20007;-65
2023/06/14 01:13:19;;;;;;;;;;;;;;;;;;5072685;28;19916;-65
2023/06/14 01:15:45;;;;;;;;;;;;;;;;;;5064461;28;19948;-65
2023/06/14 01:18:17;;;;;;;;;;;;;;;;;;5068696;28;19990;-65
2023/06/14 01:20:44;;;;;;;;;;;;;;;;;;5072094;28;20380;-65
2023/06/14 01:23:12;;;;;;;;;;;;;;;;;;5053533;28;19916;-64
2023/06/14 01:25:38;;;;;;;;;;;;;;;;;;5060326;28;19912;-65
2023/06/14 01:28:10;;;;;;;;;;;;;;;;;;5073724;28;19918;-64
2023/06/14 01:30:37;;;;;;;;;;;;;;;;;;5072367;28;19916;-64
2023/06/14 01:33:03;;;;;;;;;;;;;;;;;;5054858;28;19927;-64
2023/06/14 01:35:29;;;;;;;;;;;;;;;;;;5071569;28;19916;-65
2023/06/14 01:37:55;;;;;;;;;;;;;;;;;;5063717;28;20372;-64
2023/06/14 01:40:21;;;;;;;;;;;;;;;;;;5071758;28;19921;-64
2023/06/14 01:42:47;;;;;;;;;;;;;;;;;;5074469;28;19908;-64
2023/06/14 01:45:12;;;;;;;;;;;;;;;;;;5074290;28;19959;-64
2023/06/14 01:47:38;;;;;;;;;;;;;;;;;;5072827;28;19986;-64
2023/06/14 01:50:04;;;;;;;;;;;;;;;;;;5071567;28;20032;-64
2023/06/14 01:52:30;;;;;;;;;;;;;;;;;;5070350;28;19912;-64
2023/06/14 01:54:57;;;;;;;;;;;;;;;;;;5070301;28;20003;-64
2023/06/14 01:57:23;;;;;;;;;;;;;;;;;;5072012;28;19916;-67
2023/06/14 01:59:49;;;;;;;;;;;;;;;;;;5073542;28;19955;-64
2023/06/14 02:02:15;;;;;;;;;;;;;;;;;;5073190;28;19920;-64
2023/06/14 02:04:41;;;;;;;;;;;;;;;;;;5073946;28;20407;-65
2023/06/14 02:07:07;;;;;;;;;;;;;;;;;;5070793;28;19950;-64
2023/06/14 02:09:33;;;;;;;;;;;;;;;;;;5073259;28;19912;-64
2023/06/14 02:11:59;;;;;;;;;;;;;;;;;;5068705;28;19923;-64
2023/06/14 02:14:26;;;;;;;;;;;;;;;;;;5072496;28;19962;-64
2023/06/14 02:16:52;;;;;;;;;;;;;;;;;;5063260;28;20422;-65
2023/06/14 02:19:18;;;;;;;;;;;;;;;;;;5069814;28;19928;-64
2023/06/14 02:21:44;;;;;;;;;;;;;;;;;;5064501;28;19940;-64
2023/06/14 02:24:10;;;;;;;;;;;;;;;;;;5058782;28;19938;-64
2023/06/14 02:26:37;;;;;;;;;;;;;;;;;;5053413;28;19913;-64
2023/06/14 02:29:03;;;;;;;;;;;;;;;;;;5069477;28;19995;-64
2023/06/14 02:31:29;;;;;;;;;;;;;;;;;;5069710;28;20349;-64
2023/06/14 02:33:55;;;;;;;;;;;;;;;;;;5072631;28;19935;-65
2023/06/14 02:36:22;;;;;;;;;;;;;;;;;;5071913;28;19916;-65
2023/06/14 02:38:48;;;;;;;;;;;;;;;;;;5071233;28;20299;-64
2023/06/14 02:41:14;;;;;;;;;;;;;;;;;;5069698;28;19958;-64
2023/06/14 02:43:39;;;;;;;;;;;;;;;;;;5069574;28;19959;-64
2023/06/14 02:46:06;;;;;;;;;;;;;;;;;;5068461;28;20011;-64
2023/06/14 02:48:32;;;;;;;;;;;;;;;;;;5062191;28;20858;-64
2023/06/14 02:50:58;;;;;;;;;;;;;;;;;;5070614;28;19936;-64
2023/06/14 02:53:24;;;;;;;;;;;;;;;;;;5067685;28;19999;-64
2023/06/14 02:55:52;;;;;;;;;;;;;;;;;;5066074;28;19965;-64
2023/06/14 02:58:18;;;;;;;;;;;;;;;;;;5060308;28;19913;-64
2023/06/14 03:00:44;;;;;;;;;;;;;;;;;;5052884;28;19923;-64
2023/06/14 03:03:13;;;;;;;;;;;;;;;;;;5070008;28;19917;-64
2023/06/14 03:05:40;;;;;;;;;;;;;;;;;;5072366;28;20024;-64
2023/06/14 03:08:06;;;;;;;;;;;;;;;;;;5063505;28;19913;-64
2023/06/14 03:10:32;;;;;;;;;;;;;;;;;;5059595;28;20830;-64
2023/06/14 03:12:58;;;;;;;;;;;;;;;;;;5067833;28;20007;-64
2023/06/14 03:15:24;;;;;;;;;;;;;;;;;;5070643;28;19916;-65
2023/06/14 03:17:50;;;;;;;;;;;;;;;;;;5066610;28;19952;-67
2023/06/14 03:20:17;;;;;;;;;;;;;;;;;;5065813;28;20052;-64
2023/06/14 03:22:45;;;;;;;;;;;;;;;;;;5069676;28;20000;-64
2023/06/14 03:25:12;;;;;;;;;;;;;;;;;;5064190;28;19917;-64
2023/06/14 03:27:38;;;;;;;;;;;;;;;;;;5071361;28;19916;-64
2023/06/14 03:30:04;;;;;;;;;;;;;;;;;;5070062;28;20343;-64
2023/06/14 03:32:33;;;;;;;;;;;;;;;;;;5071946;28;19966;-64
2023/06/14 03:34:58;;;;;;;;;;;;;;;;;;5070436;28;19951;-64
2023/06/14 03:37:24;;;;;;;;;;;;;;;;;;5065172;28;20360;-64
2023/06/14 03:39:50;;;;;;;;;;;;;;;;;;5071251;28;19917;-64
2023/06/14 03:42:16;;;;;;;;;;;;;;;;;;5069543;28;19999;-64
2023/06/14 03:44:42;;;;;;;;;;;;;;;;;;5078538;28;20353;-64
2023/06/14 03:47:08;;;;;;;;;;;;;;;;;;5071565;28;19912;-64
2023/06/14 03:49:34;;;;;;;;;;;;;;;;;;5071722;28;20003;-64
2023/06/14 03:52:02;;;;;;;;;;;;;;;;;;5067854;28;19950;-64
2023/06/14 03:54:28;;;;;;;;;;;;;;;;;;5063015;28;19923;-64
2023/06/14 03:56:54;;;;;;;;;;;;;;;;;;5062794;28;20364;-64
2023/06/14 03:59:21;;;;;;;;;;;;;;;;;;5065978;28;19930;-64
2023/06/14 04:01:47;;;;;;;;;;;;;;;;;;5070091;28;19920;-64
2023/06/14 04:04:12;;;;;;;;;;;;;;;;;;5045892;28;19916;-64
2023/06/14 04:06:41;;;;;;;;;;;;;;;;;;5069916;28;20391;-64
2023/06/14 04:09:07;;;;;;;;;;;;;;;;;;5065670;28;19913;-64
2023/06/14 04:11:33;;;;;;;;;;;;;;;;;;5061412;28;19990;-64
2023/06/14 04:13:58;;;;;;;;;;;;;;;;;;5063023;28;20299;-64
2023/06/14 04:16:24;;;;;;;;;;;;;;;;;;5063260;28;19923;-64
2023/06/14 04:18:52;;;;;;;;;;;;;;;;;;5058013;28;19935;-64
2023/06/14 04:21:18;;;;;;;;;;;;;;;;;;5060336;28;19916;-64
2023/06/14 04:23:43;;;;;;;;;;;;;;;;;;5068900;28;20376;-64
2023/06/14 04:26:10;;;;;;;;;;;;;;;;;;5059048;28;20002;-64
2023/06/14 04:28:40;;;;;;;;;;;;;;;;;;5058979;28;19963;-65
2023/06/14 04:31:08;;;;;;;;;;;;;;;;;;5063380;28;19919;-64
2023/06/14 04:33:42;;;;;;;;;;;;;;;;;;5068692;28;19940;-65
2023/06/14 04:36:08;;;;;;;;;;;;;;;;;;5065353;28;19923;-65
2023/06/14 04:38:34;;;;;;;;;;;;;;;;;;5066754;28;19940;-64
2023/06/14 04:41:02;;;;;;;;;;;;;;;;;;5063384;28;20386;-65
2023/06/14 04:43:28;;;;;;;;;;;;;;;;;;5070030;28;19912;-68
2023/06/14 04:45:54;;;;;;;;;;;;;;;;;;5066548;28;20417;-64
2023/06/14 04:48:20;;;;;;;;;;;;;;;;;;5064734;28;20002;-64
2023/06/14 04:50:46;;;;;;;;;;;;;;;;;;5072558;28;19913;-65
2023/06/14 04:53:12;;;;;;;;;;;;;;;;;;5056338;28;19944;-65
2023/06/14 04:55:38;;;;;;;;;;;;;;;;;;5068833;28;19925;-65
2023/06/14 04:58:04;;;;;;;;;;;;;;;;;;5070033;28;20402;-65
2023/06/14 05:00:30;;;;;;;;;;;;;;;;;;5064582;28;19999;-65
2023/06/14 05:02:56;;;;;;;;;;;;;;;;;;5061794;28;20007;-64
2023/06/14 05:05:23;;;;;;;;;;;;;;;;;;5070702;28;19920;-65
2023/06/14 05:07:49;;;;;;;;;;;;;;;;;;5070375;28;19913;-65
2023/06/14 05:10:15;;;;;;;;;;;;;;;;;;5060057;28;20376;-65
2023/06/14 05:12:43;;;;;;;;;;;;;;;;;;5072553;28;19963;-64
2023/06/14 05:15:10;;;;;;;;;;;;;;;;;;5063653;28;20369;-66
2023/06/14 05:17:36;;;;;;;;;;;;;;;;;;5071080;28;20342;-65
2023/06/14 05:20:03;;;;;;;;;;;;;;;;;;5064045;28;19996;-65
2023/06/14 05:22:29;;;;;;;;;;;;;;;;;;5073603;28;19970;-65
2023/06/14 05:24:55;;;;;;;;;;;;;;;;;;5073241;28;19913;-64
2023/06/14 05:27:21;;;;;;;;;;;;;;;;;;5073798;28;19913;-65
2023/06/14 05:29:47;;;;;;;;;;;;;;;;;;5073347;28;19912;-65
2023/06/14 05:32:13;;;;;;;;;;;;;;;;;;5064083;28;19920;-65
2023/06/14 05:34:39;;;;;;;;;;;;;;;;;;5072595;28;19978;-65
2023/06/14 05:37:05;;;;;;;;;;;;;;;;;;5073120;28;19912;-65
2023/06/14 05:39:31;;;;;;;;;;;;;;;;;;5061018;28;19916;-65
2023/06/14 05:41:57;;;;;;;;;;;;;;;;;;5071059;28;19978;-65
2023/06/14 05:44:23;;;;;;;;;;;;;;;;;;5071158;28;19969;-65
2023/06/14 05:46:49;;;;;;;;;;;;;;;;;;5063763;28;19912;-65
2023/06/14 05:49:15;;;;;;;;;;;;;;;;;;5066106;28;19967;-65
2023/06/14 05:51:41;;;;;;;;;;;;;;;;;;5065155;28;19943;-65
2023/06/14 05:54:06;;;;;;;;;;;;;;;;;;5066253;28;20296;-64
2023/06/14 05:56:32;;;;;;;;;;;;;;;;;;5064487;28;19923;-65
2023/06/14 05:58:58;;;;;;;;;;;;;;;;;;5073231;28;19916;-65
2023/06/14 06:01:25;;;;;;;;;;;;;;;;;;5068796;28;19947;-65
2023/06/14 06:03:51;;;;;;;;;;;;;;;;;;5063911;28;20657;-64
2023/06/14 06:06:17;;;;;;;;;;;;;;;;;;5063154;28;19913;-65
2023/06/14 06:08:43;;;;;;;;;;;;;;;;;;5068283;28;19920;-65
2023/06/14 06:11:09;;;;;;;;;;;;;;;;;;5072690;28;19915;-65
2023/06/14 06:13:35;;;;;;;;;;;;;;;;;;5073255;28;19991;-65
2023/06/14 06:16:01;;;;;;;;;;;;;;;;;;5072444;28;20295;-64
2023/06/14 06:18:27;;;;;;;;;;;;;;;;;;5072838;28;19943;-65
2023/06/14 06:20:52;;;;;;;;;;;;;;;;;;5071083;28;20027;-65
2023/06/14 06:23:18;;;;;;;;;;;;;;;;;;5071482;28;20372;-65
2023/06/14 06:25:45;;;;;;;;;;;;;;;;;;5070074;28;19959;-65
2023/06/14 06:28:11;;;;;;;;;;;;;;;;;;5072955;28;19908;-65
2023/06/14 06:30:37;;;;;;;;;;;;;;;;;;5068554;28;19957;-64
2023/06/14 06:33:03;;;;;;;;;;;;;;;;;;5071179;28;19950;-64
2023/06/14 06:35:30;;;;;;;;;;;;;;;;;;5058816;28;19912;-65
2023/06/14 06:37:56;;;;;;;;;;;;;;;;;;5070985;28;19912;-65
2023/06/14 06:40:22;;;;;;;;;;;;;;;;;;5070648;28;20007;-65
2023/06/14 06:42:49;;;;;;;;;;;;;;;;;;5066915;28;20010;-64
2023/06/14 06:45:15;;;;;;;;;;;;;;;;;;5062641;28;19916;-65
2023/06/14 06:47:41;;;;;;;;;;;;;;;;;;5067541;28;19921;-65
2023/06/14 06:50:07;;;;;;;;;;;;;;;;;;5056960;28;19971;-65
2023/06/14 06:52:33;;;;;;;;;;;;;;;;;;5070013;28;19956;-65
2023/06/14 06:54:59;;;;;;;;;;;;;;;;;;5066840;28;19955;-65
2023/06/14 06:57:25;;;;;;;;;;;;;;;;;;5068605;28;19916;-65
2023/06/14 06:59:51;;;;;;;;;;;;;;;;;;5050053;28;19924;-66
2023/06/14 07:02:17;;;;;;;;;;;;;;;;;;5070592;28;19962;-66
2023/06/14 07:04:43;;;;;;;;;;;;;;;;;;5067872;28;19959;-66
2023/06/14 07:07:11;;;;;;;;;;;;;;;;;;5070213;28;19916;-66
2023/06/14 07:09:37;;;;;;;;;;;;;;;;;;5069907;28;20004;-66
2023/06/14 07:12:03;;;;;;;;;;;;;;;;;;5064839;28;19999;-66
2023/06/14 07:14:30;;;;;;;;;;;;;;;;;;5065779;28;20402;-66
2023/06/14 07:16:55;;;;;;;;;;;;;;;;;;5065682;28;19927;-66
2023/06/14 07:19:21;;;;;;;;;;;;;;;;;;5071902;28;19963;-66
2023/06/14 07:21:47;;;;;;;;;;;;;;;;;;5067263;28;20276;-68
2023/06/14 07:24:13;;;;;;;;;;;;;;;;;;5068535;28;19917;-66
2023/06/14 07:26:39;;;;;;;;;;;;;;;;;;5060924;28;19940;-65
2023/06/14 07:29:05;;;;;;;;;;;;;;;;;;5065984;28;19916;-65
2023/06/14 07:31:31;;;;;;;;;;;;;;;;;;5067160;28;20374;-64
2023/06/14 07:33:57;;;;;;;;;;;;;;;;;;5061642;28;19908;-65
2023/06/14 07:36:23;;;;;;;;;;;;;;;;;;5059412;28;20487;-66
2023/06/14 07:38:49;;;;;;;;;;;;;;;;;;5051515;28;19909;-65
2023/06/14 07:41:15;;;;;;;;;;;;;;;;;;5067861;28;19974;-65
2023/06/14 07:43:40;;;;;;;;;;;;;;;;;;5071174;28;19920;-64
2023/06/14 07:46:08;;;;;;;;;;;;;;;;;;5069699;28;19959;-66
2023/06/14 07:48:33;;;;;;;;;;;;;;;;;;5062377;28;20061;-66
2023/06/14 07:51:01;;;;;;;;;;;;;;;;;;5061033;28;19938;-65
2023/06/14 07:53:26;;;;;;;;;;;;;;;;;;5071538;28;20011;-64
2023/06/14 07:55:52;;;;;;;;;;;;;;;;;;5071451;28;19970;-66
2023/06/14 07:58:18;;;;;;;;;;;;;;;;;;5067444;28;20015;-64
2023/06/14 08:00:45;;;;;;;;;;;;;;;;;;5065823;28;19986;-66
2023/06/14 08:03:10;;;;;;;;;;;;;;;;;;5067363;28;19959;-64
2023/06/14 08:05:36;;;;;;;;;;;;;;;;;;5066742;28;20324;-66
2023/06/14 08:08:02;;;;;;;;;;;;;;;;;;5059186;28;19912;-65
2023/06/14 08:10:28;;;;;;;;;;;;;;;;;;5065808;28;20383;-65
2023/06/14 08:12:54;;;;;;;;;;;;;;;;;;5063926;28;19917;-66
2023/06/14 08:15:20;;;;;;;;;;;;;;;;;;5058729;28;20368;-65
2023/06/14 08:17:46;;;;;;;;;;;;;;;;;;5061752;28;19959;-66
2023/06/14 08:20:12;;;;;;;;;;;;;;;;;;5054450;28;20003;-66
2023/06/14 08:22:39;;;;;;;;;;;;;;;;;;5057596;28;19952;-64
2023/06/14 08:25:06;;;;;;;;;;;;;;;;;;5063303;28;19912;-64
2023/06/14 08:27:32;;;;;;;;;;;;;;;;;;5063579;28;19966;-67
2023/06/14 08:29:58;;;;;;;;;;;;;;;;;;5065694;28;19919;-67
2023/06/14 08:32:24;;;;;;;;;;;;;;;;;;5059855;28;19916;-67
2023/06/14 08:34:50;;;;;;;;;;;;;;;;;;5073031;28;19948;-67
2023/06/14 08:37:16;;;;;;;;;;;;;;;;;;5054960;28;19974;-66
2023/06/14 08:39:43;;;;;;;;;;;;;;;;;;5073490;28;20010;-66
2023/06/14 08:42:10;;;;;;;;;;;;;;;;;;5071529;28;19943;-66
2023/06/14 08:44:36;;;;;;;;;;;;;;;;;;5074804;28;20022;-66
2023/06/14 08:47:03;;;;;;;;;;;;;;;;;;5068966;28;20050;-66
2023/06/14 08:49:29;;;;;;;;;;;;;;;;;;5062518;28;20019;-66
2023/06/14 08:51:57;;;;;;;;;;;;;;;;;;5071645;28;19966;-66
2023/06/14 08:54:24;;;;;;;;;;;;;;;;;;5060211;28;19917;-67
2023/06/14 08:56:51;;;;;;;;;;;;;;;;;;5085611;28;19965;-65
2023/06/14 08:59:17;;;;;;;;;;;;;;;;;;5070908;28;19926;-66
2023/06/14 09:01:45;;;;;;;;;;;;;;;;;;5072311;28;20398;-66
2023/06/14 09:04:11;;;;;;;;;;;;;;;;;;5073164;28;19916;-67
2023/06/14 09:06:37;;;;;;;;;;;;;;;;;;5071264;28;19920;-65
2023/06/14 09:09:04;;;;;;;;;;;;;;;;;;5073049;28;19948;-66
2023/06/14 09:11:30;;;;;;;;;;;;;;;;;;5064873;28;20503;-65
2023/06/14 09:13:55;;;;;;;;;;;;;;;;;;5072691;28;19956;-66
2023/06/14 09:16:21;;;;;;;;;;;;;;;;;;5070889;28;19920;-66
2023/06/14 09:18:47;;;;;;;;;;;;;;;;;;5074158;28;20295;-66
2023/06/14 09:21:13;;;;;;;;;;;;;;;;;;5071624;28;19912;-66
2023/06/14 09:23:39;;;;;;;;;;;;;;;;;;5056064;28;19920;-66
2023/06/14 09:26:05;;;;;;;;;;;;;;;;;;5069644;28;19955;-66
2023/06/14 09:28:31;;;;;;;;;;;;;;;;;;5067640;28;19955;-66
2023/06/14 09:30:57;;;;;;;;;;;;;;;;;;5072605;28;19923;-66
2023/06/14 09:33:23;;;;;;;;;;;;;;;;;;5062777;28;20011;-66
2023/06/14 09:35:48;;;;;;;;;;;;;;;;;;5056921;28;19912;-66
2023/06/14 09:38:14;;;;;;;;;;;;;;;;;;5073269;28;19958;-66
2023/06/14 09:40:40;;;;;;;;;;;;;;;;;;5073355;28;20340;-66
2023/06/14 09:43:09;;;;;;;;;;;;;;;;;;5073876;28;19960;-66
2023/06/14 09:45:35;;;;;;;;;;;;;;;;;;5072403;28;19922;-67
2023/06/14 09:48:01;;;;;;;;;;;;;;;;;;5066508;28;20348;-67
2023/06/14 09:50:27;;;;;;;;;;;;;;;;;;5066137;28;19921;-66
2023/06/14 09:52:53;;;;;;;;;;;;;;;;;;5054761;28;19987;-67
2023/06/14 09:55:19;;;;;;;;;;;;;;;;;;5053620;28;19919;-67
2023/06/14 09:57:45;;;;;;;;;;;;;;;;;;5078223;28;19995;-65
2023/06/14 10:00:11;;;;;;;;;;;;;;;;;;5072895;28;19974;-66
2023/06/14 10:02:38;;;;;;;;;;;;;;;;;;5072359;28;19928;-65
2023/06/14 10:05:06;;;;;;;;;;;;;;;;;;5073010;28;19919;-66
2023/06/14 10:07:32;;;;;;;;;;;;;;;;;;5070269;28;20455;-66
2023/06/14 10:09:57;;;;;;;;;;;;;;;;;;5071581;28;20001;-66
2023/06/14 10:12:23;;;;;;;;;;;;;;;;;;5057680;28;19948;-67
2023/06/14 10:14:49;;;;;;;;;;;;;;;;;;5054104;28;19960;-67
2023/06/14 10:17:15;;;;;;;;;;;;;;;;;;5067184;28;20397;-66
2023/06/14 10:19:41;;;;;;;;;;;;;;;;;;5072780;28;19960;-67
2023/06/14 10:22:07;;;;;;;;;;;;;;;;;;5072309;28;20347;-66
2023/06/14 10:24:33;;;;;;;;;;;;;;;;;;5066002;28;19912;-66
2023/06/14 10:26:59;;;;;;;;;;;;;;;;;;5070004;28;20011;-66
2023/06/14 10:29:25;;;;;;;;;;;;;;;;;;5069905;28;19974;-66
2023/06/14 10:31:51;;;;;;;;;;;;;;;;;;5059315;28;19912;-67
2023/06/14 10:34:17;;;;;;;;;;;;;;;;;;5070853;28;20406;-66
2023/06/14 10:36:43;;;;;;;;;;;;;;;;;;5069447;28;19920;-69
2023/06/14 10:39:09;;;;;;;;;;;;;;;;;;5054720;28;19920;-66
2023/06/14 10:41:35;;;;;;;;;;;;;;;;;;5070790;28;19958;-67
2023/06/14 10:44:01;;;;;;;;;;;;;;;;;;5071223;28;19974;-66
2023/06/14 10:46:27;;;;;;;;;;;;;;;;;;5071748;28;19950;-66
2023/06/14 10:48:53;;;;;;;;;;;;;;;;;;5064241;28;20011;-67
2023/06/14 10:51:22;;;;;;;;;;;;;;;;;;5053973;28;19908;-66
2023/06/14 10:53:48;;;;;;;;;;;;;;;;;;5068187;28;19935;-66
2023/06/14 10:56:14;;;;;;;;;;;;;;;;;;5072342;28;19912;-65
2023/06/14 10:58:40;;;;;;;;;;;;;;;;;;5064207;28;19959;-64
2023/06/14 11:01:05;;;;;;;;;;;;;;;;;;5071760;28;19916;-65
2023/06/14 11:03:31;;;;;;;;;;;;;;;;;;5070441;28;19913;-65
2023/06/14 11:05:57;;;;;;;;;;;;;;;;;;5060665;28;20308;-66
2023/06/14 11:08:23;;;;;;;;;;;;;;;;;;5070755;28;19981;-66
2023/06/14 11:10:49;;;;;;;;;;;;;;;;;;5066987;28;19955;-66
2023/06/14 11:13:15;;;;;;;;;;;;;;;;;;5068700;28;19999;-66
2023/06/14 11:15:41;;;;;;;;;;;;;;;;;;5065056;28;20291;-67
2023/06/14 11:18:07;;;;;;;;;;;;;;;;;;5066580;28;20007;-66
2023/06/14 11:20:33;;;;;;;;;;;;;;;;;;5058932;28;19920;-65
2023/06/14 11:22:59;;;;;;;;;;;;;;;;;;5071642;28;19963;-65
2023/06/14 11:25:25;;;;;;;;;;;;;;;;;;5071889;28;20007;-65
2023/06/14 11:27:50;;;;;;;;;;;;;;;;;;5065919;28;19913;-65
2023/06/14 11:30:16;;;;;;;;;;;;;;;;;;5068502;28;20291;-65
2023/06/14 11:32:42;;;;;;;;;;;;;;;;;;5062494;28;19912;-66
2023/06/14 11:35:09;;;;;;;;;;;;;;;;;;5062533;28;19912;-66
2023/06/14 11:37:35;;;;;;;;;;;;;;;;;;5071595;28;20053;-65
2023/06/14 11:40:01;;;;;;;;;;;;;;;;;;5071305;28;20086;-66
2023/06/14 11:42:27;;;;;;;;;;;;;;;;;;5071519;28;19919;-66
2023/06/14 11:44:53;;;;;;;;;;;;;;;;;;5071505;28;19927;-66
2023/06/14 11:47:19;;;;;;;;;;;;;;;;;;5071270;28;19916;-65
2023/06/14 11:49:45;;;;;;;;;;;;;;;;;;5071136;28;20467;-65
2023/06/14 11:52:11;;;;;;;;;;;;;;;;;;5065490;28;19917;-66
2023/06/14 11:54:37;;;;;;;;;;;;;;;;;;5054729;28;19974;-66
2023/06/14 11:57:03;;;;;;;;;;;;;;;;;;5070022;28;19988;-65
2023/06/14 11:59:31;;;;;;;;;;;;;;;;;;5069596;28;20066;-66
2023/06/14 12:01:57;;;;;;;;;;;;;;;;;;5072348;28;20285;-66
2023/06/14 12:04:23;;;;;;;;;;;;;;;;;;5073315;28;20315;-65
2023/06/14 12:06:49;;;;;;;;;;;;;;;;;;5052855;28;19986;-66
2023/06/14 12:09:18;;;;;;;;;;;;;;;;;;5066777;28;19916;-65
2023/06/14 12:11:44;;;;;;;;;;;;;;;;;;5072891;28;21799;-66
2023/06/14 12:14:10;;;;;;;;;;;;;;;;;;5051903;28;19952;-66
2023/06/14 12:16:36;;;;;;;;;;;;;;;;;;5074246;28;19935;-65
2023/06/14 12:19:02;;;;;;;;;;;;;;;;;;5069003;28;19944;-66
2023/06/14 12:21:28;;;;;;;;;;;;;;;;;;5070516;28;19958;-66
2023/06/14 12:23:54;;;;;;;;;;;;;;;;;;5072243;28;19917;-66
2023/06/14 12:26:21;;;;;;;;;;;;;;;;;;5074986;28;19919;-66
2023/06/14 12:28:47;;;;;;;;;;;;;;;;;;5072584;28;19992;-65
2023/06/14 12:31:13;;;;;;;;;;;;;;;;;;5074625;28;19908;-66
2023/06/14 12:33:39;;;;;;;;;;;;;;;;;;5062963;28;19912;-66
2023/06/14 12:36:05;;;;;;;;;;;;;;;;;;5067774;28;19956;-67
2023/06/14 12:38:31;;;;;;;;;;;;;;;;;;5070090;28;20402;-66
2023/06/14 12:40:57;;;;;;;;;;;;;;;;;;5069245;28;19921;-66
2023/06/14 12:43:23;;;;;;;;;;;;;;;;;;5065454;28;19944;-66
2023/06/14 12:45:49;;;;;;;;;;;;;;;;;;5067011;28;19961;-66
2023/06/14 12:48:15;;;;;;;;;;;;;;;;;;5072365;28;19920;-66
2023/06/14 12:50:41;;;;;;;;;;;;;;;;;;5070455;28;19978;-66
2023/06/14 12:53:07;;;;;;;;;;;;;;;;;;5070551;28;20285;-66
2023/06/14 12:55:33;;;;;;;;;;;;;;;;;;5066801;28;19913;-67
2023/06/14 12:57:58;;;;;;;;;;;;;;;;;;5063662;28;19974;-67
2023/06/14 13:00:25;;;;;;;;;;;;;;;;;;5065447;28;19952;-67
2023/06/14 13:02:51;;;;;;;;;;;;;;;;;;5064339;28;19916;-67
2023/06/14 13:05:17;;;;;;;;;;;;;;;;;;5068522;28;19948;-67
2023/06/14 13:07:44;;;;;;;;;;;;;;;;;;5079674;28;19948;-67
2023/06/14 13:10:10;;;;;;;;;;;;;;;;;;5061996;28;20378;-66
2023/06/14 13:12:36;;;;;;;;;;;;;;;;;;5065310;28;19991;-67
2023/06/14 13:15:02;;;;;;;;;;;;;;;;;;5069363;28;19916;-69
2023/06/14 13:17:28;;;;;;;;;;;;;;;;;;5062466;28;19968;-68
2023/06/14 13:19:53;;;;;;;;;;;;;;;;;;5065408;28;19996;-67
2023/06/14 13:22:19;;;;;;;;;;;;;;;;;;5070588;28;19977;-67
2023/06/14 13:24:45;;;;;;;;;;;;;;;;;;5078969;28;19975;-67
2023/06/14 13:27:14;;;;;;;;;;;;;;;;;;5072035;28;20011;-68
2023/06/14 13:29:40;;;;;;;;;;;;;;;;;;5063114;28;19931;-68
2023/06/14 13:32:05;;;;;;;;;;;;;;;;;;5061292;28;19916;-67
2023/06/14 13:34:31;;;;;;;;;;;;;;;;;;5066541;28;20009;-67
2023/06/14 13:36:58;;;;;;;;;;;;;;;;;;5057330;28;19912;-67
2023/06/14 13:39:24;;;;;;;;;;;;;;;;;;5063422;28;19917;-67
2023/06/14 13:41:50;;;;;;;;;;;;;;;;;;5060968;28;19971;-63
2023/06/14 13:44:18;;;;;;;;;;;;;;;;;;5064882;28;19973;-63
2023/06/14 13:46:44;;;;;;;;;;;;;;;;;;5063794;28;19917;-63
2023/06/14 13:49:10;;;;;;;;;;;;;;;;;;5064637;28;20014;-62
2023/06/14 13:51:36;;;;;;;;;;;;;;;;;;5068639;28;19924;-63
2023/06/14 13:54:02;;;;;;;;;;;;;;;;;;5071838;28;19965;-64
2023/06/14 13:56:28;;;;;;;;;;;;;;;;;;5064596;28;20368;-63
2023/06/14 13:58:54;;;;;;;;;;;;;;;;;;5073515;28;19919;-63
2023/06/14 14:01:20;;;;;;;;;;;;;;;;;;5069571;28;19958;-63
2023/06/14 14:03:46;;;;;;;;;;;;;;;;;;5064883;28;20043;-62
2023/06/14 14:06:12;;;;;;;;;;;;;;;;;;5065593;28;19986;-63
2023/06/14 14:08:39;;;;;;;;;;;;;;;;;;5069691;28;20376;-63
2023/06/14 14:11:05;;;;;;;;;;;;;;;;;;5066290;28;19995;-63
2023/06/14 14:13:31;;;;;;;;;;;;;;;;;;5068058;28;19948;-64
2023/06/14 14:15:57;;;;;;;;;;;;;;;;;;5066311;28;19960;-63
2023/06/14 14:18:23;;;;;;;;;;;;;;;;;;5064382;28;20764;-63
2023/06/14 14:20:49;;;;;;;;;;;;;;;;;;5057584;28;20019;-63
2023/06/14 14:23:15;;;;;;;;;;;;;;;;;;5060240;28;20007;-63
2023/06/14 14:25:41;;;;;;;;;;;;;;;;;;5067185;28;20260;-63
2023/06/14 14:28:07;;;;;;;;;;;;;;;;;;5063897;28;20006;-64
2023/06/14 14:30:33;;;;;;;;;;;;;;;;;;5062415;28;20364;-64
2023/06/14 14:32:59;;;;;;;;;;;;;;;;;;5060467;28;20270;-63
2023/06/14 14:35:30;;;;;;;;;;;;;;;;;;5061728;28;20010;-63
2023/06/14 14:37:56;;;;;;;;;;;;;;;;;;5062506;28;19919;-63
2023/06/14 14:40:22;;;;;;;;;;;;;;;;;;5056953;28;19956;-62
2023/06/14 14:42:47;;;;;;;;;;;;;;;;;;5069811;28;19981;-63
2023/06/14 14:45:13;;;;;;;;;;;;;;;;;;5064337;28;19927;-62
2023/06/14 14:47:39;;;;;;;;;;;;;;;;;;5064169;28;20376;-62
2023/06/14 14:50:08;;;;;;;;;;;;;;;;;;5064304;28;19999;-63
2023/06/14 14:52:34;;;;;;;;;;;;;;;;;;5063632;28;19927;-62
2023/06/14 14:55:00;;;;;;;;;;;;;;;;;;5065238;28;20382;-62
2023/06/14 14:57:26;;;;;;;;;;;;;;;;;;5070859;28;20300;-62
2023/06/14 14:59:52;;;;;;;;;;;;;;;;;;5069097;28;19959;-62
2023/06/14 15:02:18;;;;;;;;;;;;;;;;;;5057587;28;20011;-63
2023/06/14 15:04:44;;;;;;;;;;;;;;;;;;5071991;28;20463;-65
2023/06/14 15:07:10;;;;;;;;;;;;;;;;;;5061643;28;19917;-66
2023/06/14 15:09:36;;;;;;;;;;;;;;;;;;5070314;28;19955;-65
2023/06/14 15:12:02;;;;;;;;;;;;;;;;;;5067945;28;19974;-66
2023/06/14 15:14:28;;;;;;;;;;;;;;;;;;5068384;28;19958;-67
2023/06/14 15:16:54;;;;;;;;;;;;;;;;;;5071193;28;19953;-65
2023/06/14 15:19:20;;;;;;;;;;;;;;;;;;5066660;28;20445;-65
2023/06/14 15:21:46;;;;;;;;;;;;;;;;;;5063793;28;19945;-66
2023/06/14 15:24:12;;;;;;;;;;;;;;;;;;5062141;28;19917;-65
2023/06/14 15:26:38;;;;;;;;;;;;;;;;;;5062434;28;20043;-66
2023/06/14 15:29:04;;;;;;;;;;;;;;;;;;5068935;28;20429;-66
2023/06/14 15:31:30;;;;;;;;;;;;;;;;;;5061242;28;20018;-65
2023/06/14 15:33:56;;;;;;;;;;;;;;;;;;5066311;28;20428;-65
2023/06/14 15:36:22;;;;;;;;;;;;;;;;;;5067209;28;20434;-65
2023/06/14 15:38:48;;;;;;;;;;;;;;;;;;5063694;28;19917;-65
2023/06/14 15:41:14;;;;;;;;;;;;;;;;;;5065556;28;20088;-65
2023/06/14 15:43:40;;;;;;;;;;;;;;;;;;5070968;28;19963;-65
2023/06/14 15:46:06;;;;;;;;;;;;;;;;;;5065835;28;19916;-66
2023/06/14 15:48:32;;;;;;;;;;;;;;;;;;5064576;28;20324;-65
2023/06/14 15:50:57;;;;;;;;;;;;;;;;;;5062478;28;19917;-66
2023/06/14 15:53:23;;;;;;;;;;;;;;;;;;5062023;28;19981;-66
2023/06/14 15:55:49;;;;;;;;;;;;;;;;;;5064312;28;19952;-65
2023/06/14 15:58:15;;;;;;;;;;;;;;;;;;5062931;28;19952;-66
2023/06/14 16:00:41;;;;;;;;;;;;;;;;;;5062846;28;20007;-65
2023/06/14 16:03:07;;;;;;;;;;;;;;;;;;5066363;28;19916;-65
2023/06/14 16:05:33;;;;;;;;;;;;;;;;;;5070881;28;19908;-66
2023/06/14 16:07:59;;;;;;;;;;;;;;;;;;5067651;28;19920;-66
2023/06/14 16:10:26;;;;;;;;;;;;;;;;;;5070066;28;19959;-65
2023/06/14 16:12:52;;;;;;;;;;;;;;;;;;5068725;28;19924;-65
2023/06/14 16:15:18;;;;;;;;;;;;;;;;;;5069128;28;19962;-65
2023/06/14 16:17:44;;;;;;;;;;;;;;;;;;5060246;28;19924;-65
2023/06/14 16:20:10;;;;;;;;;;;;;;;;;;5068520;28;20406;-65
2023/06/14 16:22:36;;;;;;;;;;;;;;;;;;5063825;28;19986;-66
2023/06/14 16:25:02;;;;;;;;;;;;;;;;;;5065555;28;19912;-66
2023/06/14 16:27:28;;;;;;;;;;;;;;;;;;5068237;28;19917;-66
2023/06/14 16:29:54;;;;;;;;;;;;;;;;;;5066701;28;20436;-66
2023/06/14 16:32:20;;;;;;;;;;;;;;;;;;5067264;28;20408;-66
2023/06/14 16:34:46;;;;;;;;;;;;;;;;;;5048465;28;20284;-66
2023/06/14 16:37:12;;;;;;;;;;;;;;;;;;5064595;28;19956;-65